createdAt,value
2019-05-13T00:00:08.167Z,10.80
2019-05-13T00:02:58.390Z,10.80
2019-05-13T00:05:48.341Z,10.70
2019-05-13T00:08:38.031Z,10.70
2019-05-13T00:11:27.745Z,10.70
2019-05-13T00:14:16.736Z,10.50
2019-05-13T00:17:06.724Z,10.50
2019-05-13T00:19:56.071Z,10.40
2019-05-13T00:22:45.778Z,10.40
2019-05-13T00:25:35.558Z,10.30
2019-05-13T00:28:24.587Z,10.30
2019-05-13T00:31:13.925Z,10.40
2019-05-13T00:34:03.852Z,10.30
2019-05-13T00:37:07.290Z,10.20
2019-05-13T00:39:44.871Z,10.10
2019-05-13T00:42:34.877Z,10.10
2019-05-13T00:45:24.599Z,10.00
2019-05-13T00:48:14.554Z,9.90
2019-05-13T00:51:04.190Z,9.90
2019-05-13T00:53:53.761Z,9.80
2019-05-13T00:56:43.766Z,9.80
2019-05-13T00:59:35.304Z,9.80
2019-05-13T01:02:25.014Z,9.80
2019-05-13T01:05:15.299Z,9.80
2019-05-13T01:08:04.949Z,9.70
2019-05-13T01:10:55.031Z,9.70
2019-05-13T01:13:44.670Z,9.70
2019-05-13T01:16:34.228Z,9.50
2019-05-13T01:19:23.920Z,9.50
2019-05-13T01:22:14.207Z,9.40
2019-05-13T01:25:04.088Z,9.30
2019-05-13T01:30:48.439Z,9.30
2019-05-13T01:33:37.383Z,9.30
2019-05-13T01:36:26.915Z,9.30
2019-05-13T01:39:16.522Z,9.20
2019-05-13T01:42:06.692Z,9.10
2019-05-13T01:44:55.936Z,9.10
2019-05-13T01:47:45.483Z,9.10
2019-05-13T01:50:35.029Z,9.10
2019-05-13T01:53:24.727Z,9.00
2019-05-13T01:56:16.712Z,9.00
2019-05-13T01:59:19.423Z,9.00
2019-05-13T02:02:10.103Z,9.00
2019-05-13T02:05:00.087Z,8.90
2019-05-13T02:07:59.656Z,8.90
2019-05-13T02:10:57.242Z,8.80
2019-05-13T02:13:46.891Z,8.80
2019-05-13T02:16:38.987Z,8.80
2019-05-13T02:19:29.408Z,8.70
2019-05-13T02:22:18.659Z,8.70
2019-05-13T02:25:09.300Z,8.70
2019-05-13T02:27:59.018Z,8.70
2019-05-13T02:30:48.259Z,8.60
2019-05-13T02:33:38.645Z,8.50
2019-05-13T02:36:28.349Z,8.50
2019-05-13T02:39:17.917Z,8.50
2019-05-13T02:42:08.240Z,8.50
2019-05-13T02:44:57.848Z,8.40
2019-05-13T02:47:47.374Z,8.40
2019-05-13T02:50:36.133Z,8.40
2019-05-13T02:53:25.491Z,8.30
2019-05-13T02:56:18.372Z,8.30
2019-05-13T02:59:13.794Z,8.30
2019-05-13T03:02:12.318Z,8.30
2019-05-13T03:05:03.175Z,8.20
2019-05-13T03:07:53.091Z,8.40
2019-05-13T03:10:43.499Z,8.40
2019-05-13T03:13:33.981Z,8.30
2019-05-13T03:16:33.176Z,8.20
2019-05-13T03:19:22.856Z,8.10
2019-05-13T03:22:13.634Z,8.00
2019-05-13T03:25:04.209Z,7.90
2019-05-13T03:27:54.473Z,7.70
2019-05-13T03:30:46.231Z,7.70
2019-05-13T03:33:37.681Z,7.70
2019-05-13T03:36:27.998Z,7.70
2019-05-13T03:39:17.895Z,7.70
2019-05-13T03:42:12.150Z,7.80
2019-05-13T03:45:03.376Z,7.70
2019-05-13T03:47:55.778Z,7.70
2019-05-13T03:50:45.686Z,7.70
2019-05-13T03:53:35.751Z,7.80
2019-05-13T03:56:26.227Z,7.80
2019-05-13T03:59:25.657Z,7.70
2019-05-13T04:02:15.036Z,7.70
2019-05-13T04:05:05.674Z,7.60
2019-05-13T04:07:55.441Z,7.60
2019-05-13T04:10:45.500Z,7.70
2019-05-13T04:13:35.345Z,7.70
2019-05-13T04:16:25.196Z,7.70
2019-05-13T04:19:14.560Z,7.60
2019-05-13T04:22:04.763Z,7.70
2019-05-13T04:24:54.774Z,7.70
2019-05-13T04:27:44.810Z,7.70
2019-05-13T04:30:35.067Z,7.80
2019-05-13T04:33:24.237Z,7.80
2019-05-13T04:36:14.165Z,7.70
2019-05-13T04:39:05.377Z,7.80
2019-05-13T04:41:55.433Z,7.80
2019-05-13T04:44:45.302Z,7.80
2019-05-13T04:47:34.778Z,7.80
2019-05-13T04:50:24.730Z,7.90
2019-05-13T04:53:22.807Z,7.90
2019-05-13T04:56:16.682Z,8.00
2019-05-13T04:59:06.304Z,8.00
2019-05-13T05:02:13.481Z,8.10
2019-05-13T05:05:22.266Z,8.20
2019-05-13T05:08:41.959Z,8.30
2019-05-13T05:12:06.227Z,8.40
2019-05-13T05:15:24.923Z,8.50
2019-05-13T05:19:02.088Z,8.80
2019-05-13T05:22:26.574Z,8.80
2019-05-13T05:25:37.206Z,8.90
2019-05-13T05:29:11.355Z,9.10
2019-05-13T05:33:11.217Z,9.10
2019-05-13T05:36:22.986Z,9.10
2019-05-13T05:39:24.758Z,9.40
2019-05-13T05:42:17.114Z,9.60
2019-05-13T05:45:06.715Z,9.70
2019-05-13T05:47:57.980Z,9.80
2019-05-13T05:50:48.325Z,9.80
2019-05-13T05:53:42.316Z,9.90
2019-05-13T05:56:33.894Z,10.00
2019-05-13T05:59:28.187Z,9.90
2019-05-13T06:02:22.877Z,10.10
2019-05-13T06:05:12.502Z,10.30
2019-05-13T06:08:02.027Z,10.40
2019-05-13T06:10:53.762Z,10.60
2019-05-13T06:13:43.453Z,10.90
2019-05-13T06:16:33.119Z,11.10
2019-05-13T06:19:22.685Z,11.30
2019-05-13T06:22:12.901Z,11.60
2019-05-13T06:25:03.338Z,11.80
2019-05-13T06:27:52.614Z,12.10
2019-05-13T06:30:42.155Z,12.60
2019-05-13T06:33:33.155Z,13.00
2019-05-13T06:36:22.271Z,13.40
2019-05-13T06:39:12.569Z,13.60
2019-05-13T06:42:03.071Z,13.60
2019-05-13T06:44:53.308Z,13.90
2019-05-13T06:47:43.042Z,14.30
2019-05-13T06:50:33.027Z,14.60
2019-05-13T06:53:23.023Z,14.90
2019-05-13T06:56:16.939Z,14.80
2019-05-13T06:59:06.418Z,15.30
2019-05-13T07:02:02.130Z,15.50
2019-05-13T07:04:57.288Z,15.60
2019-05-13T07:07:46.774Z,15.80
2019-05-13T07:10:36.907Z,16.00
2019-05-13T07:13:27.326Z,16.20
2019-05-13T07:16:17.053Z,16.30
2019-05-13T07:19:08.377Z,16.60
2019-05-13T07:21:58.798Z,16.60
2019-05-13T07:24:48.879Z,16.70
2019-05-13T07:27:38.916Z,16.90
2019-05-13T07:30:42.402Z,17.00
2019-05-13T07:33:32.182Z,17.30
2019-05-13T07:36:23.068Z,17.50
2019-05-13T07:39:13.605Z,17.70
2019-05-13T07:42:05.671Z,17.80
2019-05-13T07:44:53.085Z,18.10
2019-05-13T07:47:42.477Z,18.40
2019-05-13T07:50:32.246Z,18.40
2019-05-13T07:53:22.298Z,18.60
2019-05-13T07:56:18.441Z,18.80
2019-05-13T07:59:07.595Z,19.00
2019-05-13T08:02:03.106Z,19.20
2019-05-13T08:04:53.228Z,19.60
2019-05-13T08:07:42.545Z,19.80
2019-05-13T08:10:32.237Z,20.00
2019-05-13T08:13:23.789Z,20.30
2019-05-13T08:16:13.023Z,20.60
2019-05-13T08:19:02.110Z,20.70
2019-05-13T08:21:53.823Z,20.70
2019-05-13T08:24:43.662Z,20.80
2019-05-13T08:27:35.197Z,20.80
2019-05-13T08:33:22.477Z,20.90
2019-05-13T08:36:12.300Z,20.90
2019-05-13T08:39:02.666Z,21.00
2019-05-13T08:41:53.691Z,21.00
2019-05-13T08:44:42.654Z,21.10
2019-05-13T08:47:31.681Z,21.10
2019-05-13T08:50:22.039Z,21.20
2019-05-13T08:53:12.271Z,21.10
2019-05-13T08:56:01.879Z,21.60
2019-05-13T08:58:52.132Z,22.10
2019-05-13T09:01:42.816Z,22.30
2019-05-13T09:04:32.915Z,22.60
2019-05-13T09:07:24.479Z,22.80
2019-05-13T09:10:15.789Z,22.60
2019-05-13T09:13:05.534Z,22.70
2019-05-13T09:15:55.367Z,22.90
2019-05-13T09:18:45.317Z,23.10
2019-05-13T09:21:35.647Z,21.90
2019-05-13T09:24:33.011Z,21.50
2019-05-13T09:27:16.404Z,21.80
2019-05-13T09:30:05.699Z,21.90
2019-05-13T09:32:54.715Z,21.40
2019-05-13T09:35:44.534Z,20.70
2019-05-13T09:38:33.527Z,20.50
2019-05-13T09:41:23.325Z,20.40
2019-05-13T09:44:13.343Z,19.50
2019-05-13T09:47:02.892Z,19.20
2019-05-13T09:49:54.400Z,18.50
2019-05-13T09:52:43.115Z,18.60
2019-05-13T09:55:32.646Z,18.10
2019-05-13T09:58:22.512Z,17.20
2019-05-13T10:01:12.930Z,17.10
2019-05-13T10:04:03.364Z,17.30
2019-05-13T10:06:53.711Z,17.60
2019-05-13T10:09:48.074Z,17.60
2019-05-13T10:12:36.141Z,17.70
2019-05-13T10:15:27.440Z,17.70
2019-05-13T10:18:17.310Z,17.40
2019-05-13T10:21:06.816Z,17.40
2019-05-13T10:23:58.913Z,17.00
2019-05-13T10:26:48.259Z,17.40
2019-05-13T10:29:37.852Z,17.30
2019-05-13T10:32:27.507Z,17.50
2019-05-13T10:35:16.743Z,17.60
2019-05-13T10:38:06.559Z,17.80
2019-05-13T10:40:56.480Z,17.90
2019-05-13T10:43:46.329Z,17.70
2019-05-13T10:46:35.950Z,17.60
2019-05-13T10:49:25.086Z,17.50
2019-05-13T10:52:15.212Z,17.30
2019-05-13T10:55:05.331Z,16.80
2019-05-13T10:57:55.980Z,17.10
2019-05-13T11:00:49.102Z,17.20
2019-05-13T11:03:42.748Z,17.20
2019-05-13T11:06:33.123Z,16.60
2019-05-13T11:09:23.791Z,16.70
2019-05-13T11:12:13.151Z,16.80
2019-05-13T11:15:03.342Z,17.10
2019-05-13T11:17:53.519Z,17.20
2019-05-13T11:20:43.357Z,17.20
2019-05-13T11:23:37.784Z,17.00
2019-05-13T11:26:27.921Z,16.90
2019-05-13T11:29:17.596Z,17.00
2019-05-13T11:32:07.244Z,17.10
2019-05-13T11:34:56.682Z,16.90
2019-05-13T11:37:46.615Z,16.80
2019-05-13T11:40:37.236Z,16.80
2019-05-13T11:43:28.113Z,17.00
2019-05-13T11:46:18.253Z,16.80
2019-05-13T11:49:07.954Z,16.80
2019-05-13T11:51:58.115Z,16.80
2019-05-13T11:54:47.418Z,16.60
2019-05-13T11:57:37.672Z,16.90
2019-05-13T12:00:58.527Z,17.10
2019-05-13T12:03:47.897Z,17.30
2019-05-13T12:06:44.640Z,17.00
2019-05-13T12:09:28.269Z,16.80
2019-05-13T12:12:18.470Z,16.70
2019-05-13T12:15:38.194Z,16.70
2019-05-13T12:17:59.435Z,16.90
2019-05-13T12:20:53.938Z,16.70
2019-05-13T12:23:42.951Z,16.80
2019-05-13T12:26:33.435Z,17.10
2019-05-13T12:29:23.846Z,17.30
2019-05-13T12:32:14.651Z,17.20
2019-05-13T12:35:05.230Z,17.10
2019-05-13T12:37:54.913Z,17.20
2019-05-13T12:40:45.888Z,17.20
2019-05-13T12:43:36.102Z,17.30
2019-05-13T12:46:25.136Z,17.30
2019-05-13T12:49:15.087Z,17.10
2019-05-13T12:52:04.767Z,17.10
2019-05-13T12:54:53.904Z,17.00
2019-05-13T12:57:44.282Z,17.10
2019-05-13T13:00:42.816Z,17.30
2019-05-13T13:03:32.331Z,17.30
2019-05-13T13:06:32.490Z,17.50
2019-05-13T13:09:14.078Z,17.50
2019-05-13T13:12:04.725Z,17.50
2019-05-13T13:14:54.680Z,17.60
2019-05-13T13:17:45.049Z,17.70
2019-05-13T13:20:41.063Z,17.60
2019-05-13T13:23:26.085Z,17.60
2019-05-13T13:26:17.159Z,17.50
2019-05-13T13:29:07.051Z,17.10
2019-05-13T13:31:57.578Z,16.90
2019-05-13T13:34:47.130Z,17.10
2019-05-13T13:37:36.834Z,17.20
2019-05-13T13:40:29.535Z,17.10
2019-05-13T13:43:18.599Z,17.20
2019-05-13T13:46:25.329Z,17.50
2019-05-13T13:48:59.255Z,17.60
2019-05-13T13:51:47.947Z,17.60
2019-05-13T13:54:37.649Z,17.40
2019-05-13T13:57:27.612Z,17.50
2019-05-13T14:00:33.049Z,17.50
2019-05-13T14:03:12.394Z,17.40
2019-05-13T14:06:06.061Z,17.20
2019-05-13T14:08:58.537Z,17.20
2019-05-13T14:11:48.367Z,17.30
2019-05-13T14:14:37.362Z,17.30
2019-05-13T14:17:27.291Z,17.20
2019-05-13T14:20:16.801Z,17.10
2019-05-13T14:23:07.354Z,17.10
2019-05-13T14:26:00.903Z,17.00
2019-05-13T14:28:53.281Z,17.30
2019-05-13T14:31:41.469Z,17.50
2019-05-13T14:34:31.967Z,17.60
2019-05-13T14:37:22.473Z,17.70
2019-05-13T14:40:13.266Z,17.60
2019-05-13T14:43:03.906Z,17.90
2019-05-13T14:45:54.471Z,18.00
2019-05-13T14:48:43.540Z,18.10
2019-05-13T14:51:33.711Z,18.20
2019-05-13T14:54:22.742Z,18.20
2019-05-13T14:57:14.816Z,18.00
2019-05-13T15:00:03.407Z,18.00
2019-05-13T15:02:53.662Z,18.00
2019-05-13T15:05:43.990Z,18.10
2019-05-13T15:08:33.694Z,18.10
2019-05-13T15:11:24.167Z,18.40
2019-05-13T15:14:13.449Z,18.80
2019-05-13T15:17:07.374Z,18.70
2019-05-13T15:19:54.186Z,18.70
2019-05-13T15:22:43.383Z,19.10
2019-05-13T15:25:33.354Z,19.40
2019-05-13T15:28:23.400Z,19.60
2019-05-13T15:31:13.138Z,19.70
2019-05-13T15:34:02.850Z,20.10
2019-05-13T15:36:52.725Z,20.70
2019-05-13T15:39:42.876Z,21.00
2019-05-13T15:42:34.310Z,21.30
2019-05-13T15:45:24.034Z,21.10
2019-05-13T15:48:14.079Z,20.60
2019-05-13T15:51:03.882Z,19.90
2019-05-13T15:53:53.162Z,19.40
2019-05-13T15:56:42.651Z,18.70
2019-05-13T15:59:43.578Z,18.50
2019-05-13T16:02:33.921Z,18.20
2019-05-13T16:05:24.061Z,17.70
2019-05-13T16:08:13.554Z,17.60
2019-05-13T16:11:03.453Z,17.40
2019-05-13T16:13:53.222Z,17.30
2019-05-13T16:16:43.301Z,17.30
2019-05-13T16:19:33.399Z,17.20
2019-05-13T16:22:23.291Z,17.10
2019-05-13T16:25:14.042Z,17.00
2019-05-13T16:28:04.246Z,16.90
2019-05-13T16:30:54.423Z,16.80
2019-05-13T16:33:43.302Z,16.70
2019-05-13T16:36:32.282Z,16.50
2019-05-13T16:39:22.482Z,16.40
2019-05-13T16:42:12.632Z,16.30
2019-05-13T16:45:03.635Z,16.20
2019-05-13T16:47:58.032Z,16.10
2019-05-13T16:50:44.428Z,16.10
2019-05-13T16:53:33.487Z,16.10
2019-05-13T16:56:27.646Z,16.10
2019-05-13T16:59:14.093Z,16.10
2019-05-13T17:02:03.685Z,16.00
2019-05-13T17:04:53.990Z,15.90
2019-05-13T17:07:42.950Z,15.80
2019-05-13T17:10:33.434Z,15.80
2019-05-13T17:13:22.999Z,15.80
2019-05-13T17:16:12.370Z,15.70
2019-05-13T17:19:02.346Z,15.60
2019-05-13T17:21:52.104Z,15.60
2019-05-13T17:24:42.779Z,15.50
2019-05-13T17:27:32.091Z,15.50
2019-05-13T17:30:22.076Z,15.20
2019-05-13T17:33:11.901Z,15.20
2019-05-13T17:36:02.253Z,15.10
2019-05-13T17:38:52.606Z,15.10
2019-05-13T17:41:42.226Z,15.10
2019-05-13T17:44:32.171Z,15.10
2019-05-13T17:50:22.088Z,15.00
2019-05-13T17:53:11.512Z,14.90
2019-05-13T17:56:02.457Z,14.70
2019-05-13T17:58:54.770Z,14.60
2019-05-13T18:01:45.331Z,14.50
2019-05-13T18:04:34.429Z,14.50
2019-05-13T18:07:24.439Z,14.40
2019-05-13T18:10:14.473Z,14.30
2019-05-13T18:13:05.422Z,14.20
2019-05-13T18:15:55.007Z,14.10
2019-05-13T18:18:47.364Z,14.10
2019-05-13T18:21:34.904Z,14.00
2019-05-13T18:24:24.030Z,14.00
2019-05-13T18:27:14.094Z,13.90
2019-05-13T18:30:04.780Z,13.80
2019-05-13T18:32:54.870Z,13.70
2019-05-13T18:35:44.372Z,13.70
2019-05-13T18:38:33.600Z,13.60
2019-05-13T18:41:22.507Z,13.60
2019-05-13T18:44:12.223Z,13.50
2019-05-13T18:47:02.094Z,13.50
2019-05-13T18:49:52.214Z,13.40
2019-05-13T18:52:42.776Z,13.30
2019-05-13T18:55:31.789Z,13.20
2019-05-13T18:58:22.238Z,13.20
2019-05-13T19:01:13.458Z,13.10
2019-05-13T19:04:03.806Z,13.00
2019-05-13T19:06:52.867Z,13.00
2019-05-13T19:09:42.474Z,12.90
2019-05-13T19:12:33.463Z,12.80
2019-05-13T19:15:22.359Z,12.80
2019-05-13T19:18:12.303Z,12.70
2019-05-13T19:21:02.368Z,12.70
2019-05-13T19:23:52.760Z,12.60
2019-05-13T19:26:43.386Z,12.50
2019-05-13T19:29:32.611Z,12.50
2019-05-13T19:32:23.081Z,12.40
2019-05-13T19:35:12.645Z,12.30
2019-05-13T19:38:02.060Z,12.30
2019-05-13T19:40:51.385Z,12.20
2019-05-13T19:43:42.142Z,12.20
2019-05-13T19:46:32.270Z,12.10
2019-05-13T19:49:32.049Z,12.10
2019-05-13T19:52:13.579Z,12.00
2019-05-13T19:55:02.992Z,12.00
2019-05-13T19:57:52.484Z,12.00
2019-05-13T20:00:51.568Z,11.90
2019-05-13T20:03:47.342Z,11.80
2019-05-13T20:06:37.554Z,11.70
2019-05-13T20:09:28.834Z,11.70
2019-05-13T20:12:21.075Z,11.60
2019-05-13T20:15:11.754Z,11.60
2019-05-13T20:18:02.594Z,11.50
2019-05-13T20:20:52.326Z,11.40
2019-05-13T20:23:41.986Z,11.40
2019-05-13T20:26:32.244Z,11.40
2019-05-13T20:29:23.232Z,11.30
2019-05-13T20:32:13.373Z,11.20
2019-05-13T20:35:02.344Z,11.20
2019-05-13T20:37:52.210Z,11.20
2019-05-13T20:40:42.381Z,11.10
2019-05-13T20:43:32.796Z,11.00
2019-05-13T20:46:27.613Z,10.90
2019-05-13T20:49:17.194Z,10.80
2019-05-13T20:52:07.083Z,10.80
2019-05-13T20:54:56.203Z,10.70
2019-05-13T20:57:46.847Z,10.70
2019-05-13T21:00:43.792Z,10.60
2019-05-13T21:03:33.731Z,10.60
2019-05-13T21:06:24.526Z,10.50
2019-05-13T21:09:16.899Z,10.40
2019-05-13T21:12:05.485Z,10.40
2019-05-13T21:14:54.731Z,10.30
2019-05-13T21:17:44.478Z,10.30
2019-05-13T21:20:34.138Z,10.30
2019-05-13T21:23:24.341Z,10.20
2019-05-13T21:26:18.934Z,10.20
2019-05-13T21:29:08.541Z,10.20
2019-05-13T21:31:57.558Z,10.20
2019-05-13T21:34:47.466Z,10.10
2019-05-13T21:37:37.189Z,10.10
2019-05-13T21:40:26.852Z,10.10
2019-05-13T21:43:16.787Z,10.10
2019-05-13T21:46:06.243Z,10.00
2019-05-13T21:48:55.630Z,10.00
2019-05-13T21:51:46.006Z,10.00
2019-05-13T21:54:35.194Z,9.90
2019-05-13T21:57:25.114Z,9.80
2019-05-13T22:00:23.419Z,9.70
2019-05-13T22:03:12.426Z,9.70
2019-05-13T22:06:02.009Z,9.60
2019-05-13T22:08:58.218Z,9.70
2019-05-13T22:11:47.519Z,9.60
2019-05-13T22:14:36.216Z,9.60
2019-05-13T22:17:26.137Z,9.60
2019-05-13T22:20:16.110Z,9.60
2019-05-13T22:23:06.040Z,9.60
2019-05-13T22:25:56.442Z,9.60
2019-05-13T22:28:46.358Z,9.50
2019-05-13T22:31:35.992Z,9.30
2019-05-13T22:34:25.929Z,9.20
2019-05-13T22:37:15.076Z,9.10
2019-05-13T22:40:05.066Z,9.00
2019-05-13T22:42:56.597Z,8.90
2019-05-13T22:45:45.182Z,8.80
2019-05-13T22:48:35.150Z,8.80
2019-05-13T22:51:26.530Z,8.80
2019-05-13T22:54:16.983Z,8.70
2019-05-13T22:57:06.460Z,8.70
2019-05-13T22:59:55.810Z,8.70
2019-05-13T23:02:46.160Z,8.70
2019-05-13T23:05:35.893Z,8.70
2019-05-13T23:08:25.203Z,8.60
2019-05-13T23:11:14.490Z,8.60
2019-05-13T23:14:09.560Z,8.60
2019-05-13T23:16:55.652Z,8.60
2019-05-13T23:19:45.339Z,8.50
2019-05-13T23:22:34.342Z,8.50
2019-05-13T23:25:24.276Z,8.40
2019-05-13T23:28:13.675Z,8.40
2019-05-13T23:31:03.549Z,8.30
2019-05-13T23:33:53.790Z,8.20
2019-05-13T23:36:42.833Z,8.00
2019-05-13T23:39:32.649Z,7.90
2019-05-13T23:42:23.081Z,7.80
2019-05-13T23:45:12.940Z,7.70
2019-05-13T23:48:01.780Z,7.60
2019-05-13T23:50:52.170Z,7.60
2019-05-13T23:53:41.763Z,7.50
2019-05-13T23:56:31.593Z,7.50
2019-05-13T23:59:21.986Z,7.50
